Time;durP1;ratioP1;P1;durP2;ratioP2;P2;SDS_P1;SDS_P2;PMS_P1;PMS_P2;Temp;Humidity;BMP_temperature;BMP_pressure;BME280_temperature;BME280_humidity;BME280_pressure;Samples;Min_cycle;Max_cycle;Signal;HPM_P1;HPM_P2
2021/11/07 00:00:30;;;;;;;3.53;3.33;;;;;;;;;;4981259;28;21114;-78
2021/11/07 00:03:08;;;;;;;4.73;3.63;;;;;;;;;;4982139;28;20604;-79
2021/11/07 00:05:47;;;;;;;5.30;3.50;;;;;;;;;;4979422;28;20547;-79
2021/11/07 00:10:45;;;;;;;4.67;2.83;;;;;;;;;;4983369;28;20500;-79
2021/11/07 00:15:38;;;;;;;4.03;2.63;;;;;;;;;;4983005;28;20516;-79
2021/11/07 00:18:08;;;;;;;3.83;2.43;;;;;;;;;;4978396;28;20464;-79
2021/11/07 00:20:34;;;;;;;4.73;2.80;;;;;;;;;;4982134;28;20248;-78
2021/11/07 00:25:42;;;;;;;6.97;2.17;;;;;;;;;;4979403;28;20496;-78
2021/11/07 00:28:14;;;;;;;7.40;2.10;;;;;;;;;;4977022;28;20445;-78
2021/11/07 00:31:09;;;;;;;4.40;1.80;;;;;;;;;;4978823;28;20432;-76
2021/11/07 00:34:22;;;;;;;5.03;1.70;;;;;;;;;;4979049;28;20432;-79
2021/11/07 00:36:40;;;;;;;4.27;1.43;;;;;;;;;;4981155;28;20524;-79
2021/11/07 00:39:21;;;;;;;6.83;2.17;;;;;;;;;;4976201;28;20504;-79
2021/11/07 00:41:56;;;;;;;4.53;2.00;;;;;;;;;;4979448;28;20432;-79
2021/11/07 00:46:57;;;;;;;4.47;1.40;;;;;;;;;;4975667;28;20436;-77
2021/11/07 00:49:37;;;;;;;4.70;1.90;;;;;;;;;;4976297;28;20426;-78
2021/11/07 00:54:39;;;;;;;4.27;1.47;;;;;;;;;;4978697;28;20462;-79
2021/11/07 00:57:17;;;;;;;4.27;1.60;;;;;;;;;;4978252;28;20177;-79
2021/11/07 00:59:57;;;;;;;5.13;1.77;;;;;;;;;;4977183;28;20423;-78
2021/11/07 01:02:26;;;;;;;6.30;2.00;;;;;;;;;;4976655;28;20843;-79
2021/11/07 01:04:51;;;;;;;3.63;1.50;;;;;;;;;;4977249;28;20468;-78
2021/11/07 01:07:17;;;;;;;6.40;2.13;;;;;;;;;;4971484;28;20465;-77
2021/11/07 01:09:43;;;;;;;7.67;1.87;;;;;;;;;;4962497;28;20197;-79
2021/11/07 01:12:09;;;;;;;8.90;1.67;;;;;;;;;;4979385;28;20927;-75
2021/11/07 01:14:35;;;;;;;3.90;1.27;;;;;;;;;;4974910;28;20245;-76
2021/11/07 01:17:00;;;;;;;5.50;1.40;;;;;;;;;;4972906;28;20426;-76
2021/11/07 01:19:26;;;;;;;3.43;1.50;;;;;;;;;;4975580;28;20208;-76
2021/11/07 01:21:51;;;;;;;7.00;1.70;;;;;;;;;;4974782;28;20221;-77
2021/11/07 01:27:17;;;;;;;10.93;2.13;;;;;;;;;;4965216;28;20193;-76
2021/11/07 01:29:47;;;;;;;7.70;1.73;;;;;;;;;;4960441;28;21467;-76
2021/11/07 01:32:13;;;;;;;6.00;2.00;;;;;;;;;;4973890;28;20429;-78
2021/11/07 01:37:19;;;;;;;12.30;2.50;;;;;;;;;;4975707;28;20463;-76
2021/11/07 01:45:00;;;;;;;11.73;2.50;;;;;;;;;;4979523;28;20524;-74
2021/11/07 01:47:27;;;;;;;17.00;3.30;;;;;;;;;;4975903;28;20515;-74
2021/11/07 01:49:52;;;;;;;11.80;2.97;;;;;;;;;;4974726;28;20437;-74
2021/11/07 01:52:17;;;;;;;18.17;4.77;;;;;;;;;;4971448;28;20437;-74
2021/11/07 01:54:49;;;;;;;;;;;;;;;;;;;;;
2021/11/07 01:57:14;;;;;;;18.23;3.83;;;;;;;;;;4969018;28;20220;-74
2021/11/07 01:59:46;;;;;;;14.60;3.63;;;;;;;;;;4955279;28;20448;-73
2021/11/07 02:02:13;;;;;;;15.13;3.50;;;;;;;;;;4973596;28;20807;-74
2021/11/07 02:04:39;;;;;;;14.27;3.90;;;;;;;;;;4975940;28;20480;-74
2021/11/07 02:07:04;;;;;;;14.53;3.77;;;;;;;;;;4975743;28;20425;-74
2021/11/07 02:09:29;;;;;;;19.80;3.77;;;;;;;;;;4965565;28;20188;-74
2021/11/07 02:11:54;;;;;;;17.73;3.60;;;;;;;;;;4973672;28;20536;-74
2021/11/07 02:14:20;;;;;;;13.43;3.97;;;;;;;;;;4976514;28;20264;-73
2021/11/07 02:16:45;;;;;;;15.60;3.80;;;;;;;;;;4976996;28;20625;-74
2021/11/07 02:19:15;;;;;;;17.43;3.60;;;;;;;;;;4974460;28;20214;-74
2021/11/07 02:21:42;;;;;;;20.90;3.90;;;;;;;;;;4972548;28;20174;-74
2021/11/07 02:24:08;;;;;;;20.13;3.80;;;;;;;;;;4966117;28;20471;-76
2021/11/07 02:26:33;;;;;;;18.37;3.20;;;;;;;;;;4978596;28;20875;-76
2021/11/07 02:29:00;;;;;;;17.20;4.17;;;;;;;;;;4976108;28;20564;-76
2021/11/07 02:31:25;;;;;;;11.70;3.10;;;;;;;;;;4970797;28;20210;-76
2021/11/07 02:33:50;;;;;;;19.47;4.63;;;;;;;;;;4960042;28;20512;-76
2021/11/07 02:36:17;;;;;;;14.17;3.57;;;;;;;;;;4976939;28;20179;-76
2021/11/07 02:38:43;;;;;;;16.33;4.00;;;;;;;;;;4976146;28;20300;-76
2021/11/07 02:41:09;;;;;;;18.03;4.23;;;;;;;;;;4977302;28;20503;-76
2021/11/07 02:43:42;;;;;;;16.23;3.77;;;;;;;;;;4976810;28;20440;-76
2021/11/07 02:46:07;;;;;;;16.30;3.87;;;;;;;;;;4975805;28;20189;-76
2021/11/07 02:48:33;;;;;;;12.27;3.83;;;;;;;;;;4975984;28;20462;-76
2021/11/07 02:50:58;;;;;;;19.03;4.47;;;;;;;;;;4970966;28;20178;-75
2021/11/07 02:53:23;;;;;;;15.90;4.10;;;;;;;;;;4959387;28;20206;-76
2021/11/07 02:55:48;;;;;;;16.60;4.07;;;;;;;;;;4972090;28;20187;-76
2021/11/07 02:58:14;;;;;;;15.70;4.07;;;;;;;;;;4974591;28;20261;-75
2021/11/07 03:00:39;;;;;;;13.93;3.70;;;;;;;;;;4976309;28;20190;-75
2021/11/07 03:03:05;;;;;;;19.23;4.40;;;;;;;;;;4975818;28;20205;-75
2021/11/07 03:05:31;;;;;;;12.83;3.57;;;;;;;;;;4973128;28;20743;-76
2021/11/07 03:07:57;;;;;;;22.43;3.93;;;;;;;;;;4956651;28;20743;-76
2021/11/07 03:10:23;;;;;;;13.70;3.73;;;;;;;;;;4973058;28;20442;-76
2021/11/07 03:13:09;;;;;;;16.20;3.97;;;;;;;;;;4973029;28;20686;-75
2021/11/07 03:15:35;;;;;;;18.70;3.67;;;;;;;;;;4977297;28;21375;-76
2021/11/07 03:18:01;;;;;;;13.47;4.10;;;;;;;;;;4976489;28;20463;-78
2021/11/07 03:20:26;;;;;;;18.00;3.53;;;;;;;;;;4964399;28;20449;-76
2021/11/07 03:22:53;;;;;;;17.73;4.00;;;;;;;;;;4975028;28;20433;-76
2021/11/07 03:25:18;;;;;;;15.70;4.60;;;;;;;;;;4975534;28;20628;-76
2021/11/07 03:27:45;;;;;;;13.83;3.80;;;;;;;;;;4975666;28;20457;-75
2021/11/07 03:35:46;;;;;;;21.10;3.30;;;;;;;;;;4975957;28;21052;-76
2021/11/07 03:38:11;;;;;;;12.03;3.30;;;;;;;;;;4970678;28;20455;-76
2021/11/07 03:40:37;;;;;;;15.13;3.27;;;;;;;;;;4974276;28;20433;-76
2021/11/07 03:43:02;;;;;;;22.30;4.00;;;;;;;;;;4973168;28;20198;-76
2021/11/07 03:45:28;;;;;;;13.80;3.43;;;;;;;;;;4973956;28;20668;-75
2021/11/07 03:47:53;;;;;;;6.57;2.40;;;;;;;;;;4972683;28;20719;-76
2021/11/07 03:50:21;;;;;;;10.70;2.80;;;;;;;;;;4975381;28;20178;-76
2021/11/07 03:52:47;;;;;;;20.80;4.80;;;;;;;;;;4969253;28;20191;-76
2021/11/07 03:55:13;;;;;;;12.90;2.40;;;;;;;;;;4974526;28;20441;-76
2021/11/07 03:57:38;;;;;;;12.60;2.70;;;;;;;;;;4973708;28;20536;-75
2021/11/07 04:00:06;;;;;;;14.67;3.53;;;;;;;;;;4973896;28;20189;-75
2021/11/07 04:02:31;;;;;;;13.60;3.90;;;;;;;;;;4970062;28;20193;-75
2021/11/07 04:04:56;;;;;;;12.50;3.10;;;;;;;;;;4974831;28;20978;-75
2021/11/07 04:07:21;;;;;;;10.73;3.13;;;;;;;;;;4972333;28;20248;-75
2021/11/07 04:09:47;;;;;;;10.13;2.97;;;;;;;;;;4976028;28;20189;-75
2021/11/07 04:12:12;;;;;;;12.63;3.90;;;;;;;;;;4971522;28;20197;-75
2021/11/07 04:14:37;;;;;;;13.00;2.90;;;;;;;;;;4977383;28;20674;-76
2021/11/07 04:17:07;;;;;;;15.57;3.17;;;;;;;;;;4952954;28;20186;-76
2021/11/07 04:19:32;;;;;;;14.93;3.67;;;;;;;;;;4975115;28;20570;-76
2021/11/07 04:22:02;;;;;;;13.47;3.93;;;;;;;;;;4974192;28;20454;-75
2021/11/07 04:24:28;;;;;;;12.47;2.97;;;;;;;;;;4973351;28;20217;-75
2021/11/07 04:26:53;;;;;;;15.77;3.20;;;;;;;;;;4972322;28;20438;-76
2021/11/07 04:29:18;;;;;;;14.60;3.27;;;;;;;;;;4966630;28;20651;-76
2021/11/07 04:31:44;;;;;;;16.97;3.70;;;;;;;;;;4971915;28;20189;-76
2021/11/07 04:34:09;;;;;;;17.80;3.73;;;;;;;;;;4976509;28;20182;-75
2021/11/07 04:36:34;;;;;;;20.60;4.20;;;;;;;;;;4974709;28;20189;-76
2021/11/07 04:38:59;;;;;;;15.93;3.73;;;;;;;;;;4971546;28;20234;-76
2021/11/07 04:41:26;;;;;;;13.53;3.37;;;;;;;;;;4970828;28;20812;-75
2021/11/07 04:43:52;;;;;;;10.00;3.10;;;;;;;;;;4970927;28;20668;-75
2021/11/07 04:46:18;;;;;;;11.10;3.87;;;;;;;;;;4970375;28;20433;-76
2021/11/07 04:48:44;;;;;;;17.73;3.30;;;;;;;;;;4972615;28;20286;-75
2021/11/07 04:51:09;;;;;;;11.70;3.37;;;;;;;;;;4974013;28;20183;-75
2021/11/07 04:53:35;;;;;;;10.30;3.43;;;;;;;;;;4970194;28;20499;-75
2021/11/07 04:56:00;;;;;;;13.97;3.30;;;;;;;;;;4969309;28;20194;-75
2021/11/07 04:58:25;;;;;;;9.47;2.70;;;;;;;;;;4968198;28;20263;-75
2021/11/07 05:00:51;;;;;;;14.37;3.20;;;;;;;;;;4968266;28;20269;-75
2021/11/07 05:03:16;;;;;;;12.30;3.93;;;;;;;;;;4966264;28;20194;-75
2021/11/07 05:05:41;;;;;;;10.87;2.80;;;;;;;;;;4968937;28;20221;-75
2021/11/07 05:08:07;;;;;;;12.70;3.00;;;;;;;;;;4970507;28;20202;-76
2021/11/07 05:10:32;;;;;;;13.70;3.60;;;;;;;;;;4962119;28;20193;-75
2021/11/07 05:12:58;;;;;;;10.53;3.03;;;;;;;;;;4972552;28;20190;-75
2021/11/07 05:15:23;;;;;;;14.47;2.93;;;;;;;;;;4972689;28;20225;-75
2021/11/07 05:17:48;;;;;;;14.70;3.40;;;;;;;;;;4972830;28;20204;-75
2021/11/07 05:20:14;;;;;;;13.27;3.00;;;;;;;;;;4968143;28;20589;-75
2021/11/07 05:22:40;;;;;;;15.27;2.93;;;;;;;;;;4969846;28;20236;-75
2021/11/07 05:25:06;;;;;;;17.90;3.63;;;;;;;;;;4957596;28;20213;-75
2021/11/07 05:27:32;;;;;;;15.30;3.37;;;;;;;;;;4971515;28;20456;-75
2021/11/07 05:29:57;;;;;;;15.13;3.33;;;;;;;;;;4969798;28;20448;-76
2021/11/07 05:32:22;;;;;;;16.90;4.10;;;;;;;;;;4969001;28;20212;-75
2021/11/07 05:34:48;;;;;;;12.20;3.00;;;;;;;;;;4971204;28;20181;-75
2021/11/07 05:37:13;;;;;;;24.07;3.73;;;;;;;;;;4969085;28;20710;-75
2021/11/07 05:39:38;;;;;;;17.20;3.90;;;;;;;;;;4972201;28;20707;-75
2021/11/07 05:42:04;;;;;;;17.77;3.40;;;;;;;;;;4972084;28;20186;-75
2021/11/07 05:44:29;;;;;;;17.33;3.97;;;;;;;;;;4967774;28;20209;-74
2021/11/07 05:46:55;;;;;;;16.33;3.43;;;;;;;;;;4970645;28;20277;-75
2021/11/07 05:49:20;;;;;;;13.00;4.57;;;;;;;;;;4972212;28;20186;-75
2021/11/07 05:51:46;;;;;;;9.33;3.17;;;;;;;;;;4972942;28;20185;-75
2021/11/07 05:54:11;;;;;;;12.83;3.00;;;;;;;;;;4968669;28;20182;-75
2021/11/07 05:56:37;;;;;;;18.73;2.97;;;;;;;;;;4970694;28;20178;-75
2021/11/07 05:59:03;;;;;;;13.47;3.00;;;;;;;;;;4977867;28;20206;-75
2021/11/07 06:01:28;;;;;;;16.47;3.90;;;;;;;;;;4978388;28;20192;-77
2021/11/07 06:03:54;;;;;;;15.47;3.33;;;;;;;;;;4976403;28;20432;-76
2021/11/07 06:06:19;;;;;;;10.83;2.83;;;;;;;;;;4977077;28;20690;-76
2021/11/07 06:08:44;;;;;;;15.43;3.37;;;;;;;;;;4974498;28;20830;-76
2021/11/07 06:11:10;;;;;;;16.10;3.77;;;;;;;;;;4975164;28;20257;-76
2021/11/07 06:13:36;;;;;;;15.10;3.50;;;;;;;;;;4973715;28;20551;-75
2021/11/07 06:16:02;;;;;;;9.37;3.23;;;;;;;;;;4974255;28;20562;-76
2021/11/07 06:18:28;;;;;;;12.10;3.67;;;;;;;;;;4976266;28;20209;-76
2021/11/07 06:20:54;;;;;;;16.40;3.60;;;;;;;;;;4972384;28;20429;-75
2021/11/07 06:23:20;;;;;;;13.23;3.37;;;;;;;;;;4974994;28;20182;-75
2021/11/07 06:25:45;;;;;;;12.97;3.30;;;;;;;;;;4975103;28;20465;-75
2021/11/07 06:28:10;;;;;;;15.50;3.47;;;;;;;;;;4974357;28;20191;-76
2021/11/07 06:30:36;;;;;;;13.07;3.43;;;;;;;;;;4974657;28;20265;-76
2021/11/07 06:33:01;;;;;;;9.00;2.57;;;;;;;;;;4975242;28;20239;-76
2021/11/07 06:35:27;;;;;;;9.83;2.87;;;;;;;;;;4973659;28;20178;-76
2021/11/07 06:37:53;;;;;;;11.97;2.90;;;;;;;;;;4969905;28;20249;-75
2021/11/07 06:40:18;;;;;;;15.23;3.77;;;;;;;;;;4973387;28;20441;-76
2021/11/07 06:42:43;;;;;;;11.93;2.70;;;;;;;;;;4972739;28;20192;-75
2021/11/07 06:45:10;;;;;;;9.07;2.63;;;;;;;;;;4975636;28;20253;-76
2021/11/07 06:47:35;;;;;;;8.63;2.80;;;;;;;;;;4973988;28;20257;-76
2021/11/07 06:50:01;;;;;;;14.80;3.17;;;;;;;;;;4975635;28;20452;-75
2021/11/07 06:52:26;;;;;;;16.63;3.70;;;;;;;;;;4972732;28;20261;-75
2021/11/07 06:54:53;;;;;;;26.67;3.47;;;;;;;;;;4971832;28;20472;-76
2021/11/07 06:57:18;;;;;;;15.67;3.13;;;;;;;;;;4973926;28;20280;-75
2021/11/07 06:59:43;;;;;;;14.87;3.63;;;;;;;;;;4976623;28;20437;-75
2021/11/07 07:02:09;;;;;;;10.40;2.67;;;;;;;;;;4975917;28;20249;-76
2021/11/07 07:04:34;;;;;;;13.90;4.03;;;;;;;;;;4973878;28;20918;-75
2021/11/07 07:06:59;;;;;;;14.00;3.33;;;;;;;;;;4972516;28;20170;-75
2021/11/07 07:09:27;;;;;;;17.93;3.83;;;;;;;;;;4972319;28;20182;-75
2021/11/07 07:12:07;;;;;;;19.53;3.70;;;;;;;;;;4970888;28;20230;-76
2021/11/07 07:14:48;;;;;;;13.87;3.47;;;;;;;;;;4976223;28;20421;-75
2021/11/07 07:26:06;;;;;;;16.87;3.40;;;;;;;;;;4973163;28;20508;-76
2021/11/07 07:35:41;;;;;;;12.13;3.13;;;;;;;;;;4972812;28;20461;-76
2021/11/07 07:38:06;;;;;;;12.97;2.97;;;;;;;;;;4957019;28;20336;-76
2021/11/07 07:40:32;;;;;;;11.90;3.23;;;;;;;;;;4971827;28;20244;-75
2021/11/07 07:42:57;;;;;;;18.93;3.73;;;;;;;;;;4974450;28;20688;-76
2021/11/07 07:45:23;;;;;;;15.70;3.63;;;;;;;;;;4972932;28;20245;-76
2021/11/07 07:47:49;;;;;;;16.40;3.93;;;;;;;;;;4973382;28;20804;-75
2021/11/07 07:50:16;;;;;;;17.57;3.60;;;;;;;;;;4971127;28;20429;-76
2021/11/07 07:52:44;;;;;;;17.70;3.80;;;;;;;;;;4972759;28;20465;-76
2021/11/07 07:55:10;;;;;;;15.43;4.00;;;;;;;;;;4971967;28;20437;-75
2021/11/07 07:57:36;;;;;;;15.10;3.63;;;;;;;;;;4970285;28;20454;-75
2021/11/07 08:00:04;;;;;;;19.53;4.10;;;;;;;;;;4973189;28;25299;-75
2021/11/07 08:02:29;;;;;;;21.47;4.30;;;;;;;;;;4958166;28;20430;-75
2021/11/07 08:04:55;;;;;;;14.40;3.37;;;;;;;;;;4969128;28;20470;-75
2021/11/07 08:07:20;;;;;;;19.00;4.17;;;;;;;;;;4969526;28;20206;-75
2021/11/07 08:09:45;;;;;;;17.70;4.77;;;;;;;;;;4973110;28;20240;-75
2021/11/07 08:12:11;;;;;;;22.13;4.10;;;;;;;;;;4972454;28;20241;-75
2021/11/07 08:14:36;;;;;;;21.00;4.17;;;;;;;;;;4975826;28;20200;-75
2021/11/07 08:17:02;;;;;;;13.40;4.13;;;;;;;;;;4976877;28;20177;-75
2021/11/07 08:19:27;;;;;;;28.33;5.50;;;;;;;;;;4968069;28;20194;-75
2021/11/07 08:21:53;;;;;;;17.40;3.63;;;;;;;;;;4972284;28;21105;-75
2021/11/07 08:24:19;;;;;;;12.57;3.90;;;;;;;;;;4973751;28;20613;-75
2021/11/07 08:26:45;;;;;;;23.73;4.03;;;;;;;;;;4969600;28;20208;-75
2021/11/07 08:29:13;;;;;;;16.37;3.27;;;;;;;;;;4970737;28;20963;-75
2021/11/07 08:31:39;;;;;;;25.50;4.83;;;;;;;;;;4971204;28;20839;-75
2021/11/07 08:34:05;;;;;;;12.90;3.40;;;;;;;;;;4962726;28;20566;-75
2021/11/07 08:36:39;;;;;;;23.27;4.83;;;;;;;;;;4961588;28;20432;-75
2021/11/07 08:39:10;;;;;;;25.00;4.77;;;;;;;;;;4961156;28;20461;-74
2021/11/07 08:41:43;;;;;;;19.53;4.30;;;;;;;;;;4969847;28;20418;-75
2021/11/07 09:00:25;;;;;;;18.80;4.23;;;;;;;;;;4973733;28;20509;-76
2021/11/07 09:05:31;;;;;;;16.43;3.67;;;;;;;;;;4970292;28;20477;-76
2021/11/07 09:10:33;;;;;;;17.97;4.17;;;;;;;;;;4975132;28;20450;-76
2021/11/07 09:13:00;;;;;;;19.40;3.80;;;;;;;;;;4971879;28;20449;-76
2021/11/07 09:15:26;;;;;;;11.97;3.07;;;;;;;;;;4971190;28;20864;-76
2021/11/07 09:17:52;;;;;;;12.87;3.33;;;;;;;;;;4967201;28;20547;-76
2021/11/07 09:20:22;;;;;;;16.47;3.30;;;;;;;;;;4954850;28;20544;-75
2021/11/07 09:25:21;;;;;;;13.87;3.70;;;;;;;;;;4973219;28;20508;-75
2021/11/07 09:27:57;;;;;;;14.97;2.70;;;;;;;;;;4958254;28;20194;-75
2021/11/07 09:38:32;;;;;;;12.53;2.87;;;;;;;;;;4971305;28;20916;-75
2021/11/07 09:41:25;;;;;;;13.57;3.07;;;;;;;;;;4975363;28;20438;-75
2021/11/07 09:48:55;;;;;;;24.03;3.97;;;;;;;;;;4972033;28;20456;-77
2021/11/07 09:51:23;;;;;;;13.10;3.10;;;;;;;;;;4972996;28;20251;-75
2021/11/07 09:53:51;;;;;;;13.97;3.10;;;;;;;;;;4973297;28;20536;-75
2021/11/07 09:56:16;;;;;;;10.90;3.10;;;;;;;;;;4971960;28;20495;-75
2021/11/07 09:58:43;;;;;;;12.60;3.80;;;;;;;;;;4960265;28;21015;-75
2021/11/07 10:01:09;;;;;;;12.57;3.17;;;;;;;;;;4978377;28;20174;-75
2021/11/07 10:03:39;;;;;;;15.13;3.20;;;;;;;;;;4974593;28;20953;-75
2021/11/07 10:06:21;;;;;;;17.73;3.70;;;;;;;;;;4988175;23;20704;-72
2021/11/07 10:08:46;;;;;;;15.63;3.47;;;;;;;;;;4972247;28;21035;-73
2021/11/07 10:11:13;;;;;;;12.60;3.33;;;;;;;;;;4967193;28;20436;-73
2021/11/07 10:13:55;;;;;;;19.23;3.77;;;;;;;;;;4973758;28;20189;-73
2021/11/07 10:16:32;;;;;;;12.90;3.43;;;;;;;;;;4958398;28;20464;-72
2021/11/07 10:19:12;;;;;;;17.77;3.43;;;;;;;;;;4958225;28;20434;-72
2021/11/07 10:21:44;;;;;;;20.77;4.50;;;;;;;;;;4937985;28;20521;-72
2021/11/07 10:24:14;;;;;;;17.80;3.00;;;;;;;;;;4953532;28;20433;-71
2021/11/07 10:26:43;;;;;;;11.30;3.00;;;;;;;;;;4957310;28;20485;-71
2021/11/07 10:29:11;;;;;;;11.87;2.70;;;;;;;;;;4953715;28;21923;-72
2021/11/07 10:31:50;;;;;;;8.30;3.00;;;;;;;;;;4955827;28;20963;-72
2021/11/07 10:39:59;;;;;;;12.30;2.60;;;;;;;;;;4954013;28;20492;-72
2021/11/07 10:45:40;;;;;;;10.93;2.27;;;;;;;;;;4956617;28;20533;-72
2021/11/07 10:53:28;;;;;;;10.80;2.50;;;;;;;;;;4955860;28;21152;-71
2021/11/07 10:55:55;;;;;;;14.20;3.17;;;;;;;;;;4954910;28;20516;-72
2021/11/07 10:58:27;;;;;;;10.80;2.50;;;;;;;;;;4954747;28;20436;-71
2021/11/07 11:00:52;;;;;;;9.20;2.40;;;;;;;;;;4954768;28;20443;-72
2021/11/07 11:03:21;;;;;;;6.17;2.07;;;;;;;;;;4951100;28;20444;-71
2021/11/07 11:06:12;;;;;;;11.03;2.90;;;;;;;;;;4953632;28;20211;-72
2021/11/07 11:08:44;;;;;;;11.53;2.37;;;;;;;;;;4957484;28;20431;-71
2021/11/07 11:19:31;;;;;;;12.73;2.60;;;;;;;;;;4953367;28;20948;-72
2021/11/07 11:32:08;;;;;;;11.77;3.53;;;;;;;;;;4959220;28;20282;-72
2021/11/07 11:34:40;;;;;;;16.70;4.00;;;;;;;;;;4962384;28;20821;-72
2021/11/07 11:37:16;;;;;;;15.80;3.27;;;;;;;;;;4960260;28;20431;-73
2021/11/07 11:39:47;;;;;;;13.97;3.40;;;;;;;;;;4957005;28;20450;-71
2021/11/07 11:44:39;;;;;;;10.60;3.43;;;;;;;;;;4952223;28;20604;-71
2021/11/07 11:47:38;;;;;;;15.97;3.67;;;;;;;;;;4958084;28;20696;-71
2021/11/07 11:50:19;;;;;;;10.93;3.47;;;;;;;;;;4949416;28;20434;-71
2021/11/07 12:00:48;;;;;;;17.97;4.60;;;;;;;;;;4954983;28;20442;-71
2021/11/07 12:03:45;;;;;;;11.87;3.00;;;;;;;;;;4953353;28;20431;-71
2021/11/07 12:06:20;;;;;;;16.13;3.90;;;;;;;;;;4949590;28;20486;-72
2021/11/07 12:08:59;;;;;;;17.53;4.20;;;;;;;;;;4953388;28;20483;-71
2021/11/07 12:11:42;;;;;;;16.47;3.47;;;;;;;;;;4955535;28;20430;-71
2021/11/07 12:16:57;;;;;;;12.57;3.80;;;;;;;;;;4955241;28;20439;-72
2021/11/07 12:19:33;;;;;;;28.10;5.10;;;;;;;;;;4957851;28;20447;-72
2021/11/07 12:22:01;;;;;;;16.10;4.93;;;;;;;;;;4955368;28;20831;-72
2021/11/07 12:24:28;;;;;;;8.63;2.93;;;;;;;;;;4957027;28;20620;-71
2021/11/07 12:27:13;;;;;;;13.33;3.23;;;;;;;;;;4955415;28;20438;-71
2021/11/07 12:29:39;;;;;;;9.43;2.63;;;;;;;;;;4957897;28;20840;-71
2021/11/07 12:32:06;;;;;;;8.80;2.57;;;;;;;;;;4955968;28;20441;-71
2021/11/07 12:34:58;;;;;;;8.40;2.90;;;;;;;;;;4950213;28;20835;-72
2021/11/07 12:40:40;;;;;;;9.67;3.00;;;;;;;;;;4955088;28;20450;-72
2021/11/07 12:43:07;;;;;;;15.90;2.90;;;;;;;;;;4955187;28;20426;-72
2021/11/07 12:45:39;;;;;;;10.20;2.73;;;;;;;;;;4955180;28;20535;-72
2021/11/07 12:48:07;;;;;;;12.73;3.00;;;;;;;;;;4957159;28;20933;-71
2021/11/07 12:50:51;;;;;;;12.23;3.40;;;;;;;;;;4957345;28;20438;-71
2021/11/07 12:53:17;;;;;;;14.30;4.00;;;;;;;;;;4955673;28;20793;-71
2021/11/07 12:55:42;;;;;;;14.00;3.10;;;;;;;;;;4956277;28;20455;-72
2021/11/07 12:58:07;;;;;;;11.50;3.43;;;;;;;;;;4955678;28;20190;-71
2021/11/07 13:00:33;;;;;;;15.33;3.63;;;;;;;;;;4954645;28;20880;-71
2021/11/07 13:03:07;;;;;;;11.07;3.07;;;;;;;;;;4954526;28;20297;-72
2021/11/07 13:05:37;;;;;;;13.80;3.10;;;;;;;;;;4954759;28;20224;-71
2021/11/07 13:08:17;;;;;;;10.10;2.60;;;;;;;;;;4956520;28;20734;-72
2021/11/07 13:13:44;;;;;;;12.60;3.70;;;;;;;;;;4957058;28;20457;-72
2021/11/07 13:22:12;;;;;;;17.30;4.03;;;;;;;;;;4959350;28;20441;-72
2021/11/07 13:34:31;;;;;;;11.47;2.70;;;;;;;;;;4944953;28;20971;-71
2021/11/07 13:36:58;;;;;;;12.00;2.93;;;;;;;;;;4936449;28;20854;-73
2021/11/07 13:39:25;;;;;;;11.13;3.03;;;;;;;;;;4926866;28;20658;-73
2021/11/07 13:41:53;;;;;;;14.00;2.90;;;;;;;;;;4938519;28;20525;-73
2021/11/07 13:44:23;;;;;;;9.63;2.63;;;;;;;;;;4940766;28;20461;-74
2021/11/07 13:47:04;;;;;;;8.67;2.73;;;;;;;;;;4935966;28;20438;-74
2021/11/07 13:49:29;;;;;;;12.93;2.23;;;;;;;;;;4957643;28;20432;-74
2021/11/07 13:51:56;;;;;;;13.97;2.93;;;;;;;;;;4955817;28;20869;-73
2021/11/07 13:54:22;;;;;;;11.63;2.60;;;;;;;;;;4956170;28;20636;-73
2021/11/07 13:56:48;;;;;;;6.33;2.10;;;;;;;;;;4945059;28;20528;-72
2021/11/07 13:59:30;;;;;;;13.57;3.20;;;;;;;;;;4943612;28;20799;-71
2021/11/07 14:01:55;;;;;;;10.80;2.80;;;;;;;;;;4931305;28;20434;-72
2021/11/07 14:04:21;;;;;;;8.27;3.30;;;;;;;;;;4925783;28;20480;-71
2021/11/07 14:06:47;;;;;;;18.37;2.80;;;;;;;;;;4946570;28;20194;-71
2021/11/07 14:09:12;;;;;;;13.50;2.60;;;;;;;;;;4927896;28;20186;-72
2021/11/07 14:11:39;;;;;;;8.93;2.60;;;;;;;;;;4948528;28;20661;-72
2021/11/07 14:14:09;;;;;;;14.13;3.67;;;;;;;;;;4945734;28;20183;-72
2021/11/07 14:16:39;;;;;;;5.97;2.30;;;;;;;;;;4941620;28;20574;-71
2021/11/07 14:19:07;;;;;;;15.83;3.57;;;;;;;;;;4942872;28;20426;-71
2021/11/07 14:21:37;;;;;;;12.83;2.70;;;;;;;;;;4955855;28;20840;-71
2021/11/07 14:26:42;;;;;;;13.60;3.40;;;;;;;;;;4946294;28;20819;-72
2021/11/07 14:37:10;;;;;;;17.37;4.20;;;;;;;;;;4959392;28;20426;-72
2021/11/07 14:42:22;;;;;;;15.07;4.07;;;;;;;;;;4950240;28;20987;-72
2021/11/07 14:45:09;;;;;;;19.50;4.53;;;;;;;;;;4950293;28;20484;-72
2021/11/07 14:47:52;;;;;;;19.53;4.07;;;;;;;;;;4951451;28;21070;-71
2021/11/07 14:53:09;;;;;;;14.30;3.80;;;;;;;;;;4954200;28;20432;-71
2021/11/07 14:55:45;;;;;;;17.37;3.43;;;;;;;;;;4947168;28;20453;-71
2021/11/07 14:58:21;;;;;;;12.73;2.70;;;;;;;;;;4956179;28;20430;-72
2021/11/07 15:00:58;;;;;;;7.70;2.43;;;;;;;;;;4952276;28;20481;-72
2021/11/07 15:03:29;;;;;;;8.53;2.57;;;;;;;;;;4961059;28;20816;-71
2021/11/07 15:06:28;;;;;;;14.00;3.40;;;;;;;;;;4953533;28;20477;-71
2021/11/07 15:08:57;;;;;;;12.40;2.77;;;;;;;;;;4953674;28;20438;-71
2021/11/07 15:24:06;;;;;;;23.43;3.47;;;;;;;;;;4954184;28;20433;-71
2021/11/07 15:26:39;;;;;;;14.63;3.10;;;;;;;;;;4954573;28;20458;-71
2021/11/07 15:29:11;;;;;;;12.80;2.27;;;;;;;;;;4954880;28;20541;-70
2021/11/07 15:31:36;;;;;;;14.00;2.97;;;;;;;;;;4953831;28;20441;-72
2021/11/07 15:34:04;;;;;;;13.60;2.60;;;;;;;;;;4953928;28;20431;-71
2021/11/07 15:36:33;;;;;;;10.17;2.40;;;;;;;;;;4956062;28;20232;-71
2021/11/07 15:39:00;;;;;;;11.57;2.20;;;;;;;;;;4958166;28;20438;-71
2021/11/07 15:41:25;;;;;;;11.30;2.67;;;;;;;;;;4953894;28;20431;-71
2021/11/07 15:43:50;;;;;;;10.67;2.40;;;;;;;;;;4956478;28;20441;-71
2021/11/07 15:46:16;;;;;;;9.30;2.60;;;;;;;;;;4953975;28;20265;-71
2021/11/07 15:48:45;;;;;;;10.47;2.47;;;;;;;;;;4953664;28;20757;-71
2021/11/07 15:54:06;;;;;;;10.07;2.43;;;;;;;;;;4957525;28;20417;-70
2021/11/07 15:59:20;;;;;;;17.20;3.60;;;;;;;;;;4954300;28;20513;-71
2021/11/07 16:01:51;;;;;;;13.23;3.13;;;;;;;;;;4953871;28;20187;-71
2021/11/07 16:04:35;;;;;;;13.47;2.70;;;;;;;;;;4953852;28;20517;-70
2021/11/07 16:12:06;;;;;;;11.40;2.33;;;;;;;;;;4948606;28;20191;-71
2021/11/07 16:17:23;;;;;;;8.80;2.07;;;;;;;;;;4913516;28;20461;-71
2021/11/07 16:19:50;;;;;;;11.30;2.53;;;;;;;;;;4947401;28;20429;-72
2021/11/07 16:22:17;;;;;;;12.53;2.40;;;;;;;;;;4949500;28;20454;-72
2021/11/07 16:24:43;;;;;;;14.73;3.20;;;;;;;;;;4949215;28;21143;-72
2021/11/07 16:27:10;;;;;;;12.43;3.33;;;;;;;;;;4953574;28;21005;-71
2021/11/07 16:29:36;;;;;;;18.47;3.30;;;;;;;;;;4947537;28;21034;-70
2021/11/07 16:34:38;;;;;;;11.70;3.00;;;;;;;;;;4956374;28;20221;-71
2021/11/07 16:37:07;;;;;;;12.63;2.60;;;;;;;;;;4950414;28;20809;-72
2021/11/07 16:39:39;;;;;;;16.23;2.70;;;;;;;;;;4948644;28;20561;-72
2021/11/07 16:42:10;;;;;;;9.60;2.23;;;;;;;;;;4948745;28;20433;-71
2021/11/07 16:44:38;;;;;;;13.60;2.77;;;;;;;;;;4946515;28;22528;-71
2021/11/07 16:47:09;;;;;;;13.00;3.20;;;;;;;;;;4953498;28;20796;-72
2021/11/07 16:49:35;;;;;;;10.27;3.17;;;;;;;;;;4953149;28;20449;-71
2021/11/07 16:52:16;;;;;;;7.80;2.33;;;;;;;;;;4953464;28;20984;-71
2021/11/07 16:57:43;;;;;;;13.70;3.30;;;;;;;;;;4917507;28;20549;-72
2021/11/07 17:00:18;;;;;;;12.10;3.40;;;;;;;;;;4952606;28;21224;-72
2021/11/07 17:02:48;;;;;;;12.23;3.00;;;;;;;;;;4955499;28;20432;-71
2021/11/07 17:05:39;;;;;;;13.60;2.80;;;;;;;;;;4951395;28;20565;-72
2021/11/07 17:10:28;;;;;;;12.00;3.70;;;;;;;;;;4956847;28;20815;-72
2021/11/07 17:13:00;;;;;;;12.90;3.60;;;;;;;;;;4957416;28;20444;-72
2021/11/07 17:15:35;;;;;;;18.77;3.87;;;;;;;;;;4952571;28;20464;-72
2021/11/07 17:18:22;;;;;;;19.67;3.70;;;;;;;;;;4958213;28;20430;-72
2021/11/07 17:25:47;;;;;;;14.37;2.90;;;;;;;;;;4953667;28;20842;-72
2021/11/07 17:38:20;;;;;;;12.00;2.50;;;;;;;;;;4951606;28;20198;-71
2021/11/07 17:56:48;;;;;;;17.50;3.27;;;;;;;;;;4957794;28;20425;-72
2021/11/07 17:59:13;;;;;;;15.17;3.17;;;;;;;;;;4958560;28;20570;-71
2021/11/07 18:01:41;;;;;;;16.23;3.40;;;;;;;;;;4958203;28;20269;-71
2021/11/07 18:04:07;;;;;;;12.70;3.23;;;;;;;;;;4955935;28;20229;-71
2021/11/07 18:06:38;;;;;;;15.73;2.90;;;;;;;;;;4936706;28;20540;-71
2021/11/07 18:09:07;;;;;;;7.97;2.10;;;;;;;;;;4958685;28;20182;-71
2021/11/07 18:11:37;;;;;;;11.23;2.30;;;;;;;;;;4951673;28;20437;-72
2021/11/07 18:14:02;;;;;;;9.13;2.40;;;;;;;;;;4960391;28;20421;-72
2021/11/07 18:16:28;;;;;;;8.20;2.10;;;;;;;;;;4957392;28;20483;-71
2021/11/07 18:18:54;;;;;;;7.43;1.97;;;;;;;;;;4955601;28;20217;-71
2021/11/07 18:21:24;;;;;;;12.93;2.27;;;;;;;;;;4957100;28;20556;-71
2021/11/07 18:23:53;;;;;;;8.10;2.60;;;;;;;;;;4953967;28;20519;-71
2021/11/07 18:26:18;;;;;;;11.93;3.50;;;;;;;;;;4949860;28;20824;-71
2021/11/07 18:28:44;;;;;;;11.67;2.87;;;;;;;;;;4959586;28;20422;-72
2021/11/07 18:31:09;;;;;;;10.53;2.90;;;;;;;;;;4957141;28;20215;-71
2021/11/07 18:33:35;;;;;;;13.77;2.90;;;;;;;;;;4955853;28;21244;-71